Terminal Aerodrome Forecast
Issued by NWS Jackson, KY

Home | Current Version | Previous Version | Text Only | Print | Product List | Glossary On
Versions: 1 2 3 4 5 6 7 8 9 10 11 12 13 14 15 16
000
FTUS43 KJKL 022336
TAFJKL
TAF
KJKL 022336Z 0300/0324 VRB03KT P6SM FEW070
     FM030900 00000KT 4SM BR SKC
     FM031000 00000KT 1SM BR VV003
     FM031200 VRB03KT P6SM SCT015
     FM031500 VRB05KT P6SM SCT040=

USA.gov is the U.S. government's official web portal to all federal, state and local government web resources and services.